createdAt,value
2018-01-12T05:06:43.910Z,20.70
2018-01-12T05:09:10.684Z,22.30
2018-01-12T05:11:48.520Z,23.03
2018-01-12T05:14:15.303Z,20.17
2018-01-12T05:16:42.212Z,20.97
2018-01-12T05:19:09.063Z,19.73
2018-01-12T05:21:35.871Z,18.57
2018-01-12T05:24:02.738Z,20.97
2018-01-12T05:26:29.606Z,20.57
2018-01-12T05:28:56.422Z,20.37
2018-01-12T05:31:23.244Z,22.73
2018-01-12T05:33:50.112Z,20.53
2018-01-12T05:36:17.228Z,22.17
2018-01-12T05:38:45.058Z,22.17
2018-01-12T05:41:11.895Z,21.10
2018-01-12T05:43:38.714Z,21.30
2018-01-12T05:46:05.609Z,22.53
2018-01-12T05:48:32.900Z,25.63
2018-01-12T05:50:59.868Z,24.60
2018-01-12T05:53:26.672Z,24.37
2018-01-12T05:55:53.636Z,23.63
2018-01-12T05:58:20.467Z,23.90
2018-01-12T06:00:53.259Z,25.20
2018-01-12T06:03:26.071Z,24.80
2018-01-12T06:05:58.852Z,24.83
2018-01-12T06:08:25.650Z,21.73
2018-01-12T06:10:52.462Z,21.43
2018-01-12T06:13:29.488Z,23.20
2018-01-12T06:15:56.271Z,24.30
2018-01-12T06:18:23.144Z,25.77
2018-01-12T06:20:49.992Z,24.73
2018-01-12T06:23:16.816Z,19.20
2018-01-12T06:25:43.801Z,20.63
2018-01-12T06:28:10.663Z,25.10
2018-01-12T06:30:37.514Z,25.10
2018-01-12T06:33:04.363Z,21.97
2018-01-12T06:35:31.187Z,23.60
2018-01-12T06:37:58.034Z,23.17
2018-01-12T06:40:24.846Z,21.40
2018-01-12T06:42:52.554Z,20.20
2018-01-12T06:45:19.362Z,26.00
2018-01-12T06:47:46.164Z,23.43
2018-01-12T06:50:13.046Z,20.83
2018-01-12T06:52:39.847Z,22.77
2018-01-12T06:55:06.762Z,24.20
2018-01-12T06:57:33.768Z,21.97
2018-01-12T07:00:00.655Z,22.67
2018-01-12T07:02:27.462Z,24.27
2018-01-12T07:04:54.287Z,22.30
2018-01-12T07:07:21.079Z,22.57
2018-01-12T07:09:47.883Z,23.07
2018-01-12T07:12:14.743Z,25.90
2018-01-12T07:14:41.589Z,24.20
2018-01-12T07:17:08.398Z,24.57
2018-01-12T07:19:35.244Z,25.00
2018-01-12T07:22:07.895Z,22.90
2018-01-12T07:24:34.676Z,20.10
2018-01-12T07:27:01.505Z,25.63
2018-01-12T07:29:28.535Z,23.60
2018-01-12T07:31:55.355Z,26.00
2018-01-12T07:34:22.374Z,23.70
2018-01-12T07:36:49.206Z,26.63
2018-01-12T07:39:16.020Z,27.13
2018-01-12T07:41:42.881Z,23.57
2018-01-12T07:44:09.716Z,27.40
2018-01-12T07:46:36.506Z,26.17
2018-01-12T07:49:03.307Z,22.90
2018-01-12T07:51:30.091Z,20.27
2018-01-12T07:53:56.899Z,26.20
2018-01-12T07:56:23.771Z,23.17
2018-01-12T07:58:50.565Z,24.17
2018-01-12T08:01:23.105Z,24.83
2018-01-12T08:03:50.339Z,21.90
2018-01-12T08:06:17.140Z,22.93
2018-01-12T08:08:44.012Z,19.60
2018-01-12T08:11:10.809Z,21.60
2018-01-12T08:13:37.678Z,24.90
2018-01-12T08:16:04.514Z,27.07
2018-01-12T08:18:31.737Z,24.80
2018-01-12T08:20:58.531Z,20.93
2018-01-12T08:23:25.332Z,25.10
2018-01-12T08:25:52.103Z,23.00
2018-01-12T08:28:18.893Z,22.70
2018-01-12T08:30:45.695Z,23.67
2018-01-12T08:33:12.482Z,21.67
2018-01-12T08:35:39.269Z,24.33
2018-01-12T08:38:06.101Z,19.47
2018-01-12T08:40:32.971Z,19.37
2018-01-12T08:42:59.800Z,20.50
2018-01-12T08:45:26.614Z,20.43
2018-01-12T08:47:53.409Z,21.57
2018-01-12T08:50:20.204Z,22.83
2018-01-12T08:52:47.015Z,21.87
2018-01-12T08:55:13.859Z,23.00
2018-01-12T08:57:40.639Z,21.83
2018-01-12T09:00:07.475Z,22.87
2018-01-12T09:02:34.272Z,21.23
2018-01-12T09:05:01.080Z,23.60
2018-01-12T09:07:27.987Z,21.63
2018-01-12T09:09:54.830Z,21.27
2018-01-12T09:12:21.648Z,23.83
2018-01-12T09:14:50.461Z,17.60
2018-01-12T09:17:23.076Z,20.70
2018-01-12T09:19:49.937Z,19.10
2018-01-12T09:22:22.600Z,22.43
2018-01-12T09:24:49.414Z,18.43
2018-01-12T09:27:16.246Z,17.47
2018-01-12T09:29:43.105Z,20.63
2018-01-12T09:32:14.996Z,22.13
2018-01-12T09:34:45.551Z,21.50
2018-01-12T09:37:12.363Z,18.70
2018-01-12T09:39:42.970Z,20.23
2018-01-12T09:42:09.774Z,20.20
2018-01-12T09:44:36.551Z,18.27
2018-01-12T09:47:09.189Z,17.40
2018-01-12T09:49:41.929Z,22.03
2018-01-12T09:52:08.739Z,16.73
2018-01-12T09:54:35.557Z,19.13
2018-01-12T09:57:02.331Z,16.77
2018-01-12T09:59:29.958Z,17.10
2018-01-12T10:01:56.755Z,15.17
2018-01-12T10:04:23.865Z,14.90
2018-01-12T10:06:50.627Z,17.43
2018-01-12T10:09:17.493Z,15.60
2018-01-12T10:11:44.374Z,16.17
2018-01-12T10:14:11.179Z,15.27
2018-01-12T10:16:38.006Z,15.40
2018-01-12T10:19:04.839Z,18.63
2018-01-12T10:21:37.510Z,12.07
2018-01-12T10:24:04.421Z,17.50
2018-01-12T10:26:31.314Z,15.17
2018-01-12T10:29:03.940Z,14.97
2018-01-12T10:31:48.441Z,15.43
2018-01-12T10:34:21.078Z,14.10
2018-01-12T10:36:53.591Z,14.50
2018-01-12T10:39:20.439Z,15.43
2018-01-12T10:41:53.085Z,11.47
2018-01-12T10:44:19.893Z,16.03
2018-01-12T10:46:46.698Z,13.17
2018-01-12T10:49:19.333Z,12.03
2018-01-12T10:51:46.197Z,14.53
2018-01-12T10:54:12.963Z,12.87
2018-01-12T10:56:39.802Z,13.47
2018-01-12T10:59:06.645Z,13.93
2018-01-12T11:01:33.446Z,13.80
2018-01-12T11:04:00.243Z,13.50
2018-01-12T11:06:27.029Z,12.07
2018-01-12T11:08:53.851Z,12.53
2018-01-12T11:11:20.758Z,7.77
2018-01-12T11:13:47.575Z,13.93
2018-01-12T11:16:14.370Z,11.53
2018-01-12T11:18:41.198Z,10.70
2018-01-12T11:21:08.290Z,11.53
2018-01-12T11:23:35.075Z,10.93
2018-01-12T11:26:01.975Z,13.27
2018-01-12T11:28:28.758Z,14.33
2018-01-12T11:30:55.641Z,12.67
2018-01-12T11:33:22.472Z,10.37
2018-01-12T11:35:49.285Z,9.90
2018-01-12T11:38:16.188Z,10.20
2018-01-12T11:40:43.855Z,9.63
2018-01-12T11:43:10.647Z,8.83
2018-01-12T11:45:37.614Z,9.97
2018-01-12T11:48:04.462Z,8.63
2018-01-12T11:50:31.343Z,11.20
2018-01-12T11:52:58.120Z,9.17
2018-01-12T11:55:24.982Z,8.93
2018-01-12T11:57:52.218Z,10.33
2018-01-12T12:00:19.480Z,8.27
2018-01-12T12:02:46.295Z,9.43
2018-01-12T12:05:13.155Z,8.67
2018-01-12T12:07:39.977Z,9.67
2018-01-12T12:10:06.823Z,10.80
2018-01-12T12:12:33.626Z,10.20
2018-01-12T12:15:00.420Z,9.80
2018-01-12T12:17:27.258Z,10.20
2018-01-12T12:19:54.459Z,9.30
2018-01-12T12:22:21.377Z,8.30
2018-01-12T12:24:48.243Z,8.67
2018-01-12T12:27:15.127Z,6.77
2018-01-12T12:29:41.934Z,6.83
2018-01-12T12:32:08.774Z,9.60
2018-01-12T12:34:35.558Z,8.50
2018-01-12T12:37:02.357Z,7.70
2018-01-12T12:39:29.195Z,7.73
2018-01-12T12:41:56.086Z,9.10
2018-01-12T12:44:22.953Z,7.80
2018-01-12T12:46:49.828Z,8.80
2018-01-12T12:49:16.754Z,8.57
2018-01-12T12:51:43.561Z,8.00
2018-01-12T12:54:10.393Z,8.90
2018-01-12T12:56:37.199Z,8.83
2018-01-12T12:59:03.982Z,7.67
2018-01-12T13:01:30.864Z,7.87
2018-01-12T13:03:57.665Z,9.10
2018-01-12T13:06:24.505Z,9.53
2018-01-12T13:08:51.316Z,9.07
2018-01-12T13:11:18.133Z,7.03
2018-01-12T13:13:44.939Z,8.03
2018-01-12T13:16:11.771Z,8.63
2018-01-12T13:18:38.625Z,7.70
2018-01-12T13:21:05.583Z,8.80
2018-01-12T13:23:32.694Z,7.13
2018-01-12T13:25:59.492Z,8.43
2018-01-12T13:28:26.291Z,9.97
2018-01-12T13:30:53.285Z,7.40
2018-01-12T13:33:20.321Z,8.40
2018-01-12T13:35:47.162Z,9.37
2018-01-12T13:38:13.989Z,7.77
2018-01-12T13:40:40.812Z,8.20
2018-01-12T13:43:07.622Z,8.20
2018-01-12T13:45:34.570Z,10.07
2018-01-12T13:48:02.330Z,10.23
2018-01-12T13:50:29.178Z,8.33
2018-01-12T13:52:56.016Z,11.70
2018-01-12T13:55:22.854Z,9.77
2018-01-12T13:57:49.646Z,11.63
2018-01-12T14:00:16.520Z,10.57
2018-01-12T14:02:43.517Z,9.70
2018-01-12T14:05:10.329Z,9.73
2018-01-12T14:07:38.200Z,9.83
2018-01-12T14:10:05.086Z,10.03
2018-01-12T14:12:31.922Z,9.37
2018-01-12T14:14:58.771Z,12.73
2018-01-12T14:17:25.850Z,10.43
2018-01-12T14:19:52.660Z,11.07
2018-01-12T14:22:19.502Z,13.30
2018-01-12T14:24:46.406Z,8.60
2018-01-12T14:27:13.336Z,10.90
2018-01-12T14:29:40.157Z,9.03
2018-01-12T14:32:06.999Z,7.93
2018-01-12T14:34:33.799Z,8.53
2018-01-12T14:37:00.628Z,8.63
2018-01-12T14:39:27.457Z,8.30
2018-01-12T14:41:54.313Z,6.30
2018-01-12T14:44:21.209Z,7.30
2018-01-12T14:46:48.068Z,6.43
2018-01-12T14:49:15.020Z,7.37
2018-01-12T14:51:41.865Z,7.50
2018-01-12T14:54:09.556Z,6.43
2018-01-12T14:56:36.373Z,9.70
2018-01-12T14:59:03.275Z,7.97
2018-01-12T15:01:30.075Z,9.47
2018-01-12T15:03:56.856Z,9.10
2018-01-12T15:06:23.742Z,8.80
2018-01-12T15:08:51.235Z,8.80
2018-01-12T15:11:18.582Z,8.70
2018-01-12T15:13:46.282Z,8.43
2018-01-12T15:16:13.160Z,8.40
2018-01-12T15:18:39.960Z,9.27
2018-01-12T15:21:06.795Z,9.23
2018-01-12T15:23:33.828Z,9.40
2018-01-12T15:26:00.887Z,9.30
2018-01-12T15:28:27.740Z,7.93
2018-01-12T15:30:54.542Z,8.63
2018-01-12T15:33:21.383Z,8.17
2018-01-12T15:35:48.239Z,8.93
2018-01-12T15:38:15.050Z,7.83
2018-01-12T15:40:41.969Z,11.37
2018-01-12T15:43:08.822Z,9.70
2018-01-12T15:45:35.660Z,10.20
2018-01-12T15:48:02.504Z,9.17
2018-01-12T15:50:29.344Z,8.80
2018-01-12T15:52:56.142Z,10.87
2018-01-12T15:55:22.935Z,8.73
2018-01-12T15:57:49.814Z,9.70
2018-01-12T16:00:16.634Z,9.17
2018-01-12T16:02:43.769Z,9.13
2018-01-12T16:05:10.710Z,9.10
2018-01-12T16:07:37.524Z,8.40
2018-01-12T16:10:04.369Z,7.90
2018-01-12T16:12:31.514Z,9.20
2018-01-12T16:14:58.342Z,8.43
2018-01-12T16:17:25.168Z,9.27
2018-01-12T16:19:52.106Z,9.33
2018-01-12T16:22:18.909Z,9.23
2018-01-12T16:24:46.145Z,8.60
2018-01-12T16:27:13.886Z,8.70
2018-01-12T16:29:40.770Z,8.70
2018-01-12T16:32:07.552Z,9.27
2018-01-12T16:34:34.357Z,7.77
2018-01-12T16:37:01.197Z,8.70
2018-01-12T16:39:27.986Z,9.67
2018-01-12T16:41:55.131Z,7.97
2018-01-12T16:44:21.954Z,9.10
2018-01-12T16:46:48.726Z,9.07
2018-01-12T16:49:15.568Z,8.83
2018-01-12T16:51:42.338Z,7.60
2018-01-12T16:54:09.123Z,9.93
2018-01-12T16:56:36.005Z,10.90
2018-01-12T16:59:02.867Z,9.20
2018-01-12T17:01:29.642Z,7.40
2018-01-12T17:03:56.448Z,10.50
2018-01-12T17:06:23.258Z,10.90
2018-01-12T17:08:50.040Z,9.03
2018-01-12T17:11:16.951Z,8.80
2018-01-12T17:13:44.089Z,8.23
2018-01-12T17:16:10.929Z,11.82
2018-01-12T17:18:37.813Z,11.03
2018-01-12T17:21:04.630Z,9.67
2018-01-12T17:23:31.408Z,9.27
2018-01-12T17:25:58.252Z,11.23
2018-01-12T17:28:25.040Z,9.47
2018-01-12T17:30:51.799Z,9.03
2018-01-12T17:33:18.629Z,7.40
2018-01-12T17:35:45.467Z,11.20
2018-01-12T17:38:12.260Z,8.60
2018-01-12T17:40:39.075Z,11.90
2018-01-12T17:43:05.902Z,8.10
2018-01-12T17:45:33.595Z,10.77
2018-01-12T17:48:00.408Z,9.70
2018-01-12T17:50:27.279Z,9.53
2018-01-12T17:52:54.119Z,7.50
2018-01-12T17:55:20.975Z,10.40
2018-01-12T17:57:47.812Z,9.27
2018-01-12T18:00:14.679Z,8.67
2018-01-12T18:02:41.574Z,9.13
2018-01-12T18:05:08.372Z,6.20
2018-01-12T18:07:35.194Z,8.97
2018-01-12T18:10:02.559Z,8.97
2018-01-12T18:12:29.660Z,9.23
2018-01-12T18:14:56.484Z,7.63
2018-01-12T18:17:23.636Z,9.50
2018-01-12T18:19:50.499Z,9.60
2018-01-12T18:22:17.692Z,10.07
2018-01-12T18:24:44.573Z,9.47
2018-01-12T18:27:12.201Z,8.80
2018-01-12T18:29:39.027Z,8.43
2018-01-12T18:32:05.913Z,8.43
2018-01-12T18:34:32.802Z,10.00
2018-01-12T18:36:59.650Z,11.23
2018-01-12T18:39:26.515Z,9.23
2018-01-12T18:41:53.293Z,8.20
2018-01-12T18:44:20.198Z,10.10
2018-01-12T18:46:47.234Z,10.83
2018-01-12T18:49:14.023Z,10.40
2018-01-12T18:51:40.869Z,11.10
2018-01-12T18:54:07.701Z,8.90
2018-01-12T18:56:34.524Z,8.50
2018-01-12T18:59:01.291Z,9.37
2018-01-12T19:01:28.154Z,9.53
2018-01-12T19:03:55.244Z,10.90
2018-01-12T19:06:22.232Z,10.43
2018-01-12T19:08:49.290Z,9.50
2018-01-12T19:11:16.135Z,9.13
2018-01-12T19:13:44.696Z,7.67
2018-01-12T19:16:12.018Z,8.10
2018-01-12T19:18:38.842Z,10.70
2018-01-12T19:21:05.762Z,9.87
2018-01-12T19:23:33.437Z,9.17
2018-01-12T19:26:00.262Z,7.80
2018-01-12T19:28:27.135Z,8.93
2018-01-12T19:30:54.039Z,8.37
2018-01-12T19:33:20.824Z,9.80
2018-01-12T19:35:47.664Z,8.07
2018-01-12T19:38:14.508Z,9.77
2018-01-12T19:40:41.761Z,8.77
2018-01-12T19:43:08.626Z,5.20
2018-01-12T19:45:35.447Z,7.70
2018-01-12T19:48:02.374Z,8.50
2018-01-12T19:50:29.667Z,8.07
2018-01-12T19:52:57.539Z,6.73
2018-01-12T19:55:24.345Z,7.33
2018-01-12T19:57:51.219Z,8.20
2018-01-12T20:00:18.372Z,8.63
2018-01-12T20:02:45.214Z,9.17
2018-01-12T20:05:12.151Z,7.50
2018-01-12T20:07:39.092Z,7.83
2018-01-12T20:10:06.063Z,7.17
2018-01-12T20:12:32.860Z,4.17
2018-01-12T20:14:59.741Z,7.00
2018-01-12T20:17:26.592Z,7.60
2018-01-12T20:19:53.484Z,7.77
2018-01-12T20:22:20.396Z,9.93
2018-01-12T20:24:47.189Z,7.07
2018-01-12T20:27:14.003Z,8.30
2018-01-12T20:29:40.831Z,9.13
2018-01-12T20:32:07.733Z,9.57
2018-01-12T20:34:34.583Z,9.60
2018-01-12T20:37:01.458Z,7.73
2018-01-12T20:39:28.268Z,9.20
2018-01-12T20:41:55.078Z,10.00
2018-01-12T20:44:22.674Z,7.57
2018-01-12T20:46:49.627Z,10.07
2018-01-12T20:49:16.442Z,10.32
2018-01-12T20:51:43.306Z,10.00
2018-01-12T20:54:10.132Z,8.97
2018-01-12T20:56:37.278Z,8.60
2018-01-12T20:59:04.100Z,11.50
2018-01-12T21:01:30.942Z,9.43
2018-01-12T21:03:57.818Z,11.67
2018-01-12T21:06:24.673Z,8.30
2018-01-12T21:08:51.653Z,8.50
2018-01-12T21:11:18.788Z,10.87
2018-01-12T21:13:45.627Z,10.57
2018-01-12T21:16:12.514Z,9.50
2018-01-12T21:18:39.381Z,11.37
2018-01-12T21:21:06.327Z,10.77
2018-01-12T21:23:33.164Z,10.37
2018-01-12T21:26:00.014Z,9.10
2018-01-12T21:28:26.899Z,9.50
2018-01-12T21:30:53.733Z,10.50
2018-01-12T21:33:20.535Z,10.67
2018-01-12T21:35:47.397Z,11.83
2018-01-12T21:38:14.316Z,10.07
2018-01-12T21:40:41.237Z,12.03
2018-01-12T21:43:08.092Z,11.23
2018-01-12T21:45:34.921Z,9.13
2018-01-12T21:48:01.794Z,11.00
2018-01-12T21:50:28.680Z,11.30
2018-01-12T21:52:55.519Z,10.70
2018-01-12T21:55:22.368Z,10.53
2018-01-12T21:57:49.315Z,10.07
2018-01-12T22:00:16.153Z,9.73
2018-01-12T22:02:43.000Z,11.20
2018-01-12T22:07:42.935Z,11.93
2018-01-12T22:10:09.769Z,10.53
2018-01-12T22:12:36.610Z,11.53
2018-01-12T22:15:04.335Z,11.20
2018-01-12T22:17:31.300Z,9.47
2018-01-12T22:19:58.106Z,11.67
2018-01-12T22:22:24.900Z,8.60
2018-01-12T22:24:51.748Z,10.27
2018-01-12T22:27:18.541Z,11.77
2018-01-12T22:29:45.326Z,9.57
2018-01-12T22:32:12.188Z,11.70
2018-01-12T22:34:38.962Z,12.43
2018-01-12T22:37:05.777Z,10.50
2018-01-12T22:39:32.652Z,10.70
2018-01-12T22:41:59.540Z,11.73
2018-01-12T22:44:26.315Z,12.67
2018-01-12T22:46:53.128Z,14.00
2018-01-12T22:49:20.742Z,11.90
2018-01-12T22:51:47.618Z,12.87
2018-01-12T22:54:14.480Z,13.37
2018-01-12T22:56:41.277Z,13.50
2018-01-12T22:59:08.068Z,11.40
2018-01-12T23:01:34.936Z,13.23
2018-01-12T23:04:01.807Z,12.27
2018-01-12T23:06:28.600Z,13.00
2018-01-12T23:08:55.478Z,13.30
2018-01-12T23:11:23.215Z,14.40
2018-01-12T23:13:50.903Z,15.13
2018-01-12T23:16:17.747Z,16.73
2018-01-12T23:18:44.547Z,12.63
2018-01-12T23:21:11.646Z,11.20
2018-01-12T23:23:38.481Z,15.57
2018-01-12T23:26:05.363Z,13.97
2018-01-12T23:28:32.197Z,13.80
2018-01-12T23:30:59.025Z,12.00
2018-01-12T23:33:25.856Z,13.47
